sensor_id;sensor_type;location;lat;lon;timestamp;pressure;altitude;pressure_sealevel;temperature;humidity
75933;BME280;64803;52.356;5.310;2023-03-23T00:01:58;100432.75;;;11.81;100.00
75933;BME280;64803;52.356;5.310;2023-03-23T00:04:24;100426.91;;;11.71;100.00
75933;BME280;64803;52.356;5.310;2023-03-23T00:06:52;100431.25;;;11.72;100.00
75933;BME280;64803;52.356;5.310;2023-03-23T00:09:18;100412.41;;;11.72;100.00
75933;BME280;64803;52.356;5.310;2023-03-23T00:11:50;100413.88;;;11.75;100.00
75933;BME280;64803;52.356;5.310;2023-03-23T00:14:16;100408.50;;;11.75;100.00
75933;BME280;64803;52.356;5.310;2023-03-23T00:16:48;100432.84;;;11.67;100.00
75933;BME280;64803;52.356;5.310;2023-03-23T00:19:16;100427.91;;;11.70;100.00
75933;BME280;64803;52.356;5.310;2023-03-23T00:21:45;100431.63;;;11.69;100.00
75933;BME280;64803;52.356;5.310;2023-03-23T00:24:14;100420.88;;;11.69;100.00
75933;BME280;64803;52.356;5.310;2023-03-23T00:26:43;100421.88;;;11.68;100.00
75933;BME280;64803;52.356;5.310;2023-03-23T00:29:16;100417.53;;;11.67;100.00
75933;BME280;64803;52.356;5.310;2023-03-23T00:31:45;100422.16;;;11.73;100.00
75933;BME280;64803;52.356;5.310;2023-03-23T00:34:16;100414.66;;;11.69;100.00
75933;BME280;64803;52.356;5.310;2023-03-23T00:36:47;100416.50;;;11.68;100.00
75933;BME280;64803;52.356;5.310;2023-03-23T00:39:14;100415.34;;;11.77;100.00
75933;BME280;64803;52.356;5.310;2023-03-23T00:41:43;100406.25;;;11.78;100.00
75933;BME280;64803;52.356;5.310;2023-03-23T00:44:10;100410.56;;;11.73;100.00
75933;BME280;64803;52.356;5.310;2023-03-23T00:46:47;100414.31;;;11.78;100.00
75933;BME280;64803;52.356;5.310;2023-03-23T00:49:17;100403.34;;;11.73;100.00
75933;BME280;64803;52.356;5.310;2023-03-23T00:51:43;100404.34;;;11.72;100.00
75933;BME280;64803;52.356;5.310;2023-03-23T00:54:10;100403.13;;;11.75;100.00
75933;BME280;64803;52.356;5.310;2023-03-23T00:56:37;100393.63;;;11.79;100.00
75933;BME280;64803;52.356;5.310;2023-03-23T00:59:06;100396.94;;;11.81;100.00
75933;BME280;64803;52.356;5.310;2023-03-23T01:01:33;100385.41;;;11.87;100.00
75933;BME280;64803;52.356;5.310;2023-03-23T01:04:00;100393.69;;;11.85;100.00
75933;BME280;64803;52.356;5.310;2023-03-23T01:06:31;100396.97;;;11.87;100.00
75933;BME280;64803;52.356;5.310;2023-03-23T01:08:58;100387.69;;;11.90;100.00
75933;BME280;64803;52.356;5.310;2023-03-23T01:11:24;100386.41;;;11.86;100.00
75933;BME280;64803;52.356;5.310;2023-03-23T01:13:51;100386.84;;;11.89;100.00
75933;BME280;64803;52.356;5.310;2023-03-23T01:16:20;100385.66;;;11.92;100.00
75933;BME280;64803;52.356;5.310;2023-03-23T01:18:46;100390.78;;;11.87;100.00
75933;BME280;64803;52.356;5.310;2023-03-23T01:21:14;100382.72;;;11.87;100.00
75933;BME280;64803;52.356;5.310;2023-03-23T01:23:42;100370.34;;;11.92;100.00
75933;BME280;64803;52.356;5.310;2023-03-23T01:26:14;100377.97;;;11.89;100.00
75933;BME280;64803;52.356;5.310;2023-03-23T01:28:41;100362.41;;;11.84;100.00
75933;BME280;64803;52.356;5.310;2023-03-23T01:31:12;100348.19;;;11.90;100.00
75933;BME280;64803;52.356;5.310;2023-03-23T01:33:39;100350.88;;;11.90;100.00
75933;BME280;64803;52.356;5.310;2023-03-23T01:36:11;100332.66;;;11.92;100.00
75933;BME280;64803;52.356;5.310;2023-03-23T01:38:39;100351.50;;;11.92;100.00
75933;BME280;64803;52.356;5.310;2023-03-23T01:41:05;100349.84;;;11.98;100.00
75933;BME280;64803;52.356;5.310;2023-03-23T01:43:31;100337.63;;;11.95;100.00
75933;BME280;64803;52.356;5.310;2023-03-23T01:45:57;100336.59;;;11.96;100.00
75933;BME280;64803;52.356;5.310;2023-03-23T01:48:35;100333.28;;;11.94;100.00
75933;BME280;64803;52.356;5.310;2023-03-23T01:51:05;100326.66;;;11.90;100.00
75933;BME280;64803;52.356;5.310;2023-03-23T01:53:46;100326.00;;;11.88;100.00
75933;BME280;64803;52.356;5.310;2023-03-23T01:56:16;100333.28;;;11.94;100.00
75933;BME280;64803;52.356;5.310;2023-03-23T01:58:45;100343.66;;;11.97;100.00
75933;BME280;64803;52.356;5.310;2023-03-23T02:01:14;100328.31;;;11.98;100.00
75933;BME280;64803;52.356;5.310;2023-03-23T02:03:42;100333.31;;;12.01;100.00
75933;BME280;64803;52.356;5.310;2023-03-23T02:06:10;100325.47;;;11.99;100.00
75933;BME280;64803;52.356;5.310;2023-03-23T02:08:43;100327.50;;;11.97;100.00
75933;BME280;64803;52.356;5.310;2023-03-23T02:11:18;100325.84;;;11.96;100.00
75933;BME280;64803;52.356;5.310;2023-03-23T02:13:45;100310.09;;;11.93;100.00
75933;BME280;64803;52.356;5.310;2023-03-23T02:16:44;100315.94;;;12.03;100.00
75933;BME280;64803;52.356;5.310;2023-03-23T02:22:10;100315.13;;;12.03;100.00
75933;BME280;64803;52.356;5.310;2023-03-23T02:24:58;100314.72;;;12.06;100.00
75933;BME280;64803;52.356;5.310;2023-03-23T02:38:47;100320.69;;;12.01;100.00
75933;BME280;64803;52.356;5.310;2023-03-23T02:41:25;100322.34;;;12.02;100.00
75933;BME280;64803;52.356;5.310;2023-03-23T02:43:54;100313.44;;;12.02;100.00
75933;BME280;64803;52.356;5.310;2023-03-23T02:46:22;100308.91;;;12.02;100.00
75933;BME280;64803;52.356;5.310;2023-03-23T02:48:50;100311.19;;;12.05;100.00
75933;BME280;64803;52.356;5.310;2023-03-23T02:51:19;100306.84;;;12.04;100.00
75933;BME280;64803;52.356;5.310;2023-03-23T02:53:47;100304.75;;;12.00;100.00
75933;BME280;64803;52.356;5.310;2023-03-23T02:56:17;100295.44;;;12.02;100.00
75933;BME280;64803;52.356;5.310;2023-03-23T02:58:44;100306.44;;;12.07;100.00
75933;BME280;64803;52.356;5.310;2023-03-23T03:03:52;100303.13;;;12.05;100.00
75933;BME280;64803;52.356;5.310;2023-03-23T03:11:52;100295.44;;;12.02;100.00
75933;BME280;64803;52.356;5.310;2023-03-23T03:14:24;100301.47;;;12.04;100.00
75933;BME280;64803;52.356;5.310;2023-03-23T03:16:58;100304.38;;;12.09;100.00
75933;BME280;64803;52.356;5.310;2023-03-23T03:19:30;100293.63;;;12.09;100.00
75933;BME280;64803;52.356;5.310;2023-03-23T03:21:58;100279.94;;;12.04;100.00
75933;BME280;64803;52.356;5.310;2023-03-23T03:24:37;100279.94;;;12.04;100.00
75933;BME280;64803;52.356;5.310;2023-03-23T03:27:05;100272.88;;;12.03;100.00
75933;BME280;64803;52.356;5.310;2023-03-23T03:29:51;100285.25;;;11.91;100.00
75933;BME280;64803;52.356;5.310;2023-03-23T03:32:22;100285.75;;;11.67;100.00
75933;BME280;64803;52.356;5.310;2023-03-23T03:34:51;100281.59;;;11.65;100.00
75933;BME280;64803;52.356;5.310;2023-03-23T03:37:18;100279.28;;;11.62;100.00
75933;BME280;64803;52.356;5.310;2023-03-23T03:39:47;100275.94;;;11.60;100.00
75933;BME280;64803;52.356;5.310;2023-03-23T03:42:13;100274.72;;;11.62;100.00
75933;BME280;64803;52.356;5.310;2023-03-23T03:44:39;100277.94;;;11.79;100.00
75933;BME280;64803;52.356;5.310;2023-03-23T03:47:05;100283.13;;;11.80;100.00
75933;BME280;64803;52.356;5.310;2023-03-23T03:49:31;100269.28;;;11.83;100.00
75933;BME280;64803;52.356;5.310;2023-03-23T03:51:57;100275.69;;;11.82;100.00
75933;BME280;64803;52.356;5.310;2023-03-23T03:54:43;100282.09;;;11.81;100.00
75933;BME280;64803;52.356;5.310;2023-03-23T03:57:10;100279.00;;;11.84;100.00
75933;BME280;64803;52.356;5.310;2023-03-23T04:00:05;100287.53;;;11.94;100.00
75933;BME280;64803;52.356;5.310;2023-03-23T04:02:42;100298.13;;;11.96;100.00
75933;BME280;64803;52.356;5.310;2023-03-23T04:05:10;100305.75;;;11.92;100.00
75933;BME280;64803;52.356;5.310;2023-03-23T04:07:37;100295.09;;;11.71;100.00
75933;BME280;64803;52.356;5.310;2023-03-23T04:10:08;100322.91;;;11.57;100.00
75933;BME280;64803;52.356;5.310;2023-03-23T04:12:35;100320.13;;;11.44;100.00
75933;BME280;64803;52.356;5.310;2023-03-23T04:15:19;100323.88;;;11.50;100.00
75933;BME280;64803;52.356;5.310;2023-03-23T04:17:46;100320.91;;;11.38;100.00
75933;BME280;64803;52.356;5.310;2023-03-23T04:20:13;100318.75;;;11.27;100.00
75933;BME280;64803;52.356;5.310;2023-03-23T04:22:48;100332.78;;;11.22;100.00
75933;BME280;64803;52.356;5.310;2023-03-23T04:25:19;100338.88;;;11.10;100.00
75933;BME280;64803;52.356;5.310;2023-03-23T04:27:51;100339.66;;;11.04;100.00
75933;BME280;64803;52.356;5.310;2023-03-23T04:30:28;100336.25;;;10.95;100.00
75933;BME280;64803;52.356;5.310;2023-03-23T04:33:07;100336.22;;;10.89;100.00
75933;BME280;64803;52.356;5.310;2023-03-23T04:35:33;100336.41;;;10.87;100.00
75933;BME280;64803;52.356;5.310;2023-03-23T04:38:23;100341.13;;;10.85;100.00
75933;BME280;64803;52.356;5.310;2023-03-23T04:40:55;100360.59;;;10.87;100.00
75933;BME280;64803;52.356;5.310;2023-03-23T04:43:42;100359.00;;;10.93;100.00
75933;BME280;64803;52.356;5.310;2023-03-23T04:46:26;100351.44;;;10.82;100.00
75933;BME280;64803;52.356;5.310;2023-03-23T04:48:57;100372.03;;;10.75;100.00
75933;BME280;64803;52.356;5.310;2023-03-23T04:51:30;100360.00;;;10.71;100.00
75933;BME280;64803;52.356;5.310;2023-03-23T04:54:03;100341.31;;;10.63;100.00
75933;BME280;64803;52.356;5.310;2023-03-23T04:56:31;100369.06;;;10.70;100.00
75933;BME280;64803;52.356;5.310;2023-03-23T04:59:03;100370.97;;;10.76;100.00
75933;BME280;64803;52.356;5.310;2023-03-23T05:01:46;100373.31;;;10.79;100.00
75933;BME280;64803;52.356;5.310;2023-03-23T05:04:17;100364.34;;;10.72;100.00
75933;BME280;64803;52.356;5.310;2023-03-23T05:06:52;100381.47;;;10.71;100.00
75933;BME280;64803;52.356;5.310;2023-03-23T05:09:23;100378.97;;;10.69;100.00
75933;BME280;64803;52.356;5.310;2023-03-23T05:11:50;100385.59;;;10.67;100.00
75933;BME280;64803;52.356;5.310;2023-03-23T05:14:16;100383.06;;;10.65;100.00
75933;BME280;64803;52.356;5.310;2023-03-23T05:16:45;100368.25;;;10.69;100.00
75933;BME280;64803;52.356;5.310;2023-03-23T05:19:15;100388.78;;;10.77;100.00
75933;BME280;64803;52.356;5.310;2023-03-23T05:21:41;100386.84;;;10.92;100.00
75933;BME280;64803;52.356;5.310;2023-03-23T05:24:07;100377.72;;;10.86;100.00
75933;BME280;64803;52.356;5.310;2023-03-23T05:26:33;100399.78;;;10.82;100.00
75933;BME280;64803;52.356;5.310;2023-03-23T05:29:06;100379.19;;;10.89;100.00
75933;BME280;64803;52.356;5.310;2023-03-23T05:31:42;100387.50;;;10.94;100.00
75933;BME280;64803;52.356;5.310;2023-03-23T05:34:08;100389.09;;;10.88;100.00
75933;BME280;64803;52.356;5.310;2023-03-23T05:36:40;100382.91;;;10.88;100.00
75933;BME280;64803;52.356;5.310;2023-03-23T05:39:26;100392.88;;;10.94;100.00
75933;BME280;64803;52.356;5.310;2023-03-23T05:42:20;100394.91;;;10.92;100.00
75933;BME280;64803;52.356;5.310;2023-03-23T05:45:04;100389.34;;;10.93;100.00
75933;BME280;64803;52.356;5.310;2023-03-23T05:47:32;100393.72;;;10.94;100.00
75933;BME280;64803;52.356;5.310;2023-03-23T05:50:05;100391.28;;;10.99;100.00
75933;BME280;64803;52.356;5.310;2023-03-23T05:52:33;100396.66;;;10.99;100.00
75933;BME280;64803;52.356;5.310;2023-03-23T05:55:02;100404.13;;;11.04;100.00
75933;BME280;64803;52.356;5.310;2023-03-23T05:57:30;100417.56;;;11.04;100.00
75933;BME280;64803;52.356;5.310;2023-03-23T06:00:04;100413.88;;;11.05;100.00
75933;BME280;64803;52.356;5.310;2023-03-23T06:03:10;100408.69;;;11.03;100.00
75933;BME280;64803;52.356;5.310;2023-03-23T06:05:47;100413.97;;;10.97;100.00
75933;BME280;64803;52.356;5.310;2023-03-23T06:08:17;100416.03;;;10.95;100.00
75933;BME280;64803;52.356;5.310;2023-03-23T06:10:44;100416.41;;;10.92;100.00
75933;BME280;64803;52.356;5.310;2023-03-23T06:13:12;100427.47;;;10.82;100.00
75933;BME280;64803;52.356;5.310;2023-03-23T06:15:43;100432.00;;;10.82;100.00
75933;BME280;64803;52.356;5.310;2023-03-23T06:18:41;100435.09;;;10.79;100.00
75933;BME280;64803;52.356;5.310;2023-03-23T06:21:14;100437.78;;;10.79;100.00
75933;BME280;64803;52.356;5.310;2023-03-23T06:23:53;100432.41;;;10.79;100.00
75933;BME280;64803;52.356;5.310;2023-03-23T06:26:23;100448.97;;;10.82;100.00
75933;BME280;64803;52.356;5.310;2023-03-23T06:28:56;100449.78;;;10.83;100.00
75933;BME280;64803;52.356;5.310;2023-03-23T06:31:22;100449.16;;;10.81;100.00
75933;BME280;64803;52.356;5.310;2023-03-23T06:33:49;100450.63;;;10.83;100.00
75933;BME280;64803;52.356;5.310;2023-03-23T06:36:25;100459.31;;;10.85;100.00
75933;BME280;64803;52.356;5.310;2023-03-23T06:39:11;100460.16;;;10.86;100.00
75933;BME280;64803;52.356;5.310;2023-03-23T06:41:53;100470.91;;;10.86;100.00
75933;BME280;64803;52.356;5.310;2023-03-23T06:44:19;100476.75;;;10.89;100.00
75933;BME280;64803;52.356;5.310;2023-03-23T06:46:45;100466.81;;;10.90;100.00
75933;BME280;64803;52.356;5.310;2023-03-23T06:49:34;100467.91;;;10.95;100.00
75933;BME280;64803;52.356;5.310;2023-03-23T06:52:10;100477.25;;;10.99;100.00
75933;BME280;64803;52.356;5.310;2023-03-23T06:54:36;100461.41;;;11.04;100.00
75933;BME280;64803;52.356;5.310;2023-03-23T06:57:04;100467.88;;;11.10;100.00
75933;BME280;64803;52.356;5.310;2023-03-23T06:59:30;100461.09;;;11.14;100.00
75933;BME280;64803;52.356;5.310;2023-03-23T07:01:57;100465.44;;;11.15;100.00
75933;BME280;64803;52.356;5.310;2023-03-23T07:04:23;100461.72;;;11.16;100.00
75933;BME280;64803;52.356;5.310;2023-03-23T07:07:10;100465.25;;;11.16;100.00
75933;BME280;64803;52.356;5.310;2023-03-23T07:09:47;100480.16;;;11.19;100.00
75933;BME280;64803;52.356;5.310;2023-03-23T07:12:17;100476.63;;;11.18;100.00
75933;BME280;64803;52.356;5.310;2023-03-23T07:14:46;100479.13;;;11.20;100.00
75933;BME280;64803;52.356;5.310;2023-03-23T07:17:12;100477.09;;;11.22;100.00
75933;BME280;64803;52.356;5.310;2023-03-23T07:19:45;100470.69;;;11.23;100.00
75933;BME280;64803;52.356;5.310;2023-03-23T07:22:14;100469.28;;;11.27;100.00
75933;BME280;64803;52.356;5.310;2023-03-23T07:24:43;100452.72;;;11.23;100.00
75933;BME280;64803;52.356;5.310;2023-03-23T07:27:18;100470.56;;;11.31;100.00
75933;BME280;64803;52.356;5.310;2023-03-23T07:29:45;100467.09;;;11.37;100.00
75933;BME280;64803;52.356;5.310;2023-03-23T07:32:18;100477.84;;;11.37;100.00
75933;BME280;64803;52.356;5.310;2023-03-23T07:34:44;100485.47;;;11.33;100.00
75933;BME280;64803;52.356;5.310;2023-03-23T07:37:33;100490.84;;;11.33;100.00
75933;BME280;64803;52.356;5.310;2023-03-23T07:40:00;100491.03;;;11.32;100.00
75933;BME280;64803;52.356;5.310;2023-03-23T07:42:33;100490.84;;;11.33;100.00
75933;BME280;64803;52.356;5.310;2023-03-23T07:44:59;100489.00;;;11.34;100.00
75933;BME280;64803;52.356;5.310;2023-03-23T07:47:26;100491.28;;;11.37;100.00
75933;BME280;64803;52.356;5.310;2023-03-23T07:49:53;100503.34;;;11.41;100.00
75933;BME280;64803;52.356;5.310;2023-03-23T07:52:27;100501.69;;;11.40;100.00
75933;BME280;64803;52.356;5.310;2023-03-23T07:54:53;100506.63;;;11.37;100.00
75933;BME280;64803;52.356;5.310;2023-03-23T07:57:28;100510.13;;;11.37;100.00
75933;BME280;64803;52.356;5.310;2023-03-23T07:59:57;100514.94;;;11.42;100.00
75933;BME280;64803;52.356;5.310;2023-03-23T08:02:24;100509.22;;;11.51;100.00
75933;BME280;64803;52.356;5.310;2023-03-23T08:05:13;100512.56;;;11.53;100.00
75933;BME280;64803;52.356;5.310;2023-03-23T08:08:05;100499.06;;;11.47;100.00
75933;BME280;64803;52.356;5.310;2023-03-23T08:11:04;100505.78;;;11.36;100.00
75933;BME280;64803;52.356;5.310;2023-03-23T08:13:36;100505.31;;;11.32;100.00
75933;BME280;64803;52.356;5.310;2023-03-23T08:16:14;100495.66;;;11.38;100.00
75933;BME280;64803;52.356;5.310;2023-03-23T08:18:59;100508.66;;;11.34;100.00
75933;BME280;64803;52.356;5.310;2023-03-23T08:21:47;100503.34;;;11.41;99.62
75933;BME280;64803;52.356;5.310;2023-03-23T08:24:33;100509.03;;;11.53;99.40
75933;BME280;64803;52.356;5.310;2023-03-23T08:27:24;100524.84;;;11.62;100.00
75933;BME280;64803;52.356;5.310;2023-03-23T08:30:07;100532.69;;;11.78;100.00
75933;BME280;64803;52.356;5.310;2023-03-23T08:32:58;100528.06;;;11.72;99.93
75933;BME280;64803;52.356;5.310;2023-03-23T08:35:57;100535.50;;;11.70;100.00
75933;BME280;64803;52.356;5.310;2023-03-23T08:38:58;100530.25;;;11.83;100.00
75933;BME280;64803;52.356;5.310;2023-03-23T08:41:36;100520.81;;;11.94;100.00
75933;BME280;64803;52.356;5.310;2023-03-23T08:44:20;100530.75;;;11.93;100.00
75933;BME280;64803;52.356;5.310;2023-03-23T08:47:05;100542.91;;;11.89;100.00
75933;BME280;64803;52.356;5.310;2023-03-23T08:50:02;100537.50;;;12.10;100.00
75933;BME280;64803;52.356;5.310;2023-03-23T08:52:45;100529.34;;;12.25;100.00
75933;BME280;64803;52.356;5.310;2023-03-23T08:55:28;100531.53;;;12.42;100.00
75933;BME280;64803;52.356;5.310;2023-03-23T08:58:17;100530.63;;;12.29;100.00
75933;BME280;64803;52.356;5.310;2023-03-23T09:01:04;100543.00;;;12.23;98.20
75933;BME280;64803;52.356;5.310;2023-03-23T09:03:44;100546.78;;;12.29;98.80
75933;BME280;64803;52.356;5.310;2023-03-23T09:06:25;100551.84;;;12.17;99.70
75933;BME280;64803;52.356;5.310;2023-03-23T09:08:51;100554.13;;;12.20;98.35
75933;BME280;64803;52.356;5.310;2023-03-23T09:11:18;100546.81;;;12.35;96.98
75933;BME280;64803;52.356;5.310;2023-03-23T09:13:45;100549.03;;;12.60;96.23
75933;BME280;64803;52.356;5.310;2023-03-23T09:16:11;100549.59;;;12.83;96.74
75933;BME280;64803;52.356;5.310;2023-03-23T09:18:37;100551.31;;;12.63;94.60
75933;BME280;64803;52.356;5.310;2023-03-23T09:21:03;100558.50;;;12.49;94.45
75933;BME280;64803;52.356;5.310;2023-03-23T09:23:30;100549.66;;;12.55;94.70
75933;BME280;64803;52.356;5.310;2023-03-23T09:25:56;100552.28;;;12.48;94.28
75933;BME280;64803;52.356;5.310;2023-03-23T09:28:22;100562.13;;;12.35;94.11
75933;BME280;64803;52.356;5.310;2023-03-23T09:30:48;100545.28;;;12.61;95.60
75933;BME280;64803;52.356;5.310;2023-03-23T09:33:15;100540.53;;;12.56;91.75
75933;BME280;64803;52.356;5.310;2023-03-23T09:35:41;100548.31;;;12.79;90.86
75933;BME280;64803;52.356;5.310;2023-03-23T09:38:09;100541.19;;;12.65;90.78
75933;BME280;64803;52.356;5.310;2023-03-23T09:40:56;100557.09;;;12.53;91.84
75933;BME280;64803;52.356;5.310;2023-03-23T09:48:57;100557.59;;;12.35;94.35
75933;BME280;64803;52.356;5.310;2023-03-23T09:56:41;100550.81;;;13.21;89.86
75933;BME280;64803;52.356;5.310;2023-03-23T10:01:49;100574.53;;;12.98;88.43
75933;BME280;64803;52.356;5.310;2023-03-23T10:04:31;100577.63;;;12.95;87.56
75933;BME280;64803;52.356;5.310;2023-03-23T10:07:05;100560.41;;;12.96;89.00
75933;BME280;64803;52.356;5.310;2023-03-23T10:09:32;100578.28;;;12.97;86.35
75933;BME280;64803;52.356;5.310;2023-03-23T10:12:10;100582.63;;;12.98;86.62
75933;BME280;64803;52.356;5.310;2023-03-23T10:15:01;100592.31;;;12.92;85.45
75933;BME280;64803;52.356;5.310;2023-03-23T10:18:04;100600.41;;;12.92;86.08
75933;BME280;64803;52.356;5.310;2023-03-23T10:23:14;100594.34;;;12.84;87.20
75933;BME280;64803;52.356;5.310;2023-03-23T10:25:45;100594.34;;;12.84;87.47
75933;BME280;64803;52.356;5.310;2023-03-23T10:28:17;100591.88;;;12.82;83.85
75933;BME280;64803;52.356;5.310;2023-03-23T10:30:56;100596.38;;;12.75;83.52
75933;BME280;64803;52.356;5.310;2023-03-23T10:33:26;100590.41;;;12.52;85.69
75933;BME280;64803;52.356;5.310;2023-03-23T10:39:18;100590.38;;;12.45;87.56
75933;BME280;64803;52.356;5.310;2023-03-23T10:41:45;100603.97;;;12.59;87.06
75933;BME280;64803;52.356;5.310;2023-03-23T10:44:20;100603.03;;;12.79;87.24
75933;BME280;64803;52.356;5.310;2023-03-23T10:46:52;100600.63;;;12.91;86.19
75933;BME280;64803;52.356;5.310;2023-03-23T10:49:26;100604.28;;;13.11;86.90
75933;BME280;64803;52.356;5.310;2023-03-23T10:54:57;100593.00;;;13.48;85.13
75933;BME280;64803;52.356;5.310;2023-03-23T10:57:28;100605.81;;;13.33;86.44
75933;BME280;64803;52.356;5.310;2023-03-23T11:00:21;100609.09;;;13.22;88.03
75933;BME280;64803;52.356;5.310;2023-03-23T11:02:47;100607.59;;;13.13;88.04
75933;BME280;64803;52.356;5.310;2023-03-23T11:05:25;100601.28;;;13.40;85.33
75933;BME280;64803;52.356;5.310;2023-03-23T11:07:54;100619.13;;;13.41;84.12
75933;BME280;64803;52.356;5.310;2023-03-23T11:10:26;100619.59;;;13.51;83.77
75933;BME280;64803;52.356;5.310;2023-03-23T11:12:57;100604.25;;;13.58;83.01
75933;BME280;64803;52.356;5.310;2023-03-23T11:15:36;100604.06;;;13.66;84.94
75933;BME280;64803;52.356;5.310;2023-03-23T11:18:11;100615.00;;;13.45;84.50
75933;BME280;64803;52.356;5.310;2023-03-23T11:20:43;100609.16;;;13.35;83.80
75933;BME280;64803;52.356;5.310;2023-03-23T11:23:20;100606.56;;;13.14;82.98
75933;BME280;64803;52.356;5.310;2023-03-23T11:26:08;100599.56;;;13.26;78.41
75933;BME280;64803;52.356;5.310;2023-03-23T11:28:38;100613.19;;;13.11;78.92
75933;BME280;64803;52.356;5.310;2023-03-23T11:31:08;100613.69;;;13.28;81.21
75933;BME280;64803;52.356;5.310;2023-03-23T11:34:00;100622.88;;;13.46;83.67
75933;BME280;64803;52.356;5.310;2023-03-23T11:36:42;100623.44;;;13.29;81.86
75933;BME280;64803;52.356;5.310;2023-03-23T11:42:46;100608.69;;;14.24;81.17
75933;BME280;64803;52.356;5.310;2023-03-23T11:45:35;100623.00;;;13.86;75.27
75933;BME280;64803;52.356;5.310;2023-03-23T11:48:38;100616.41;;;14.21;78.05
75933;BME280;64803;52.356;5.310;2023-03-23T11:51:17;100610.41;;;14.32;74.82
75933;BME280;64803;52.356;5.310;2023-03-23T11:56:42;100606.84;;;14.12;76.73
75933;BME280;64803;52.356;5.310;2023-03-23T11:59:12;100613.47;;;14.16;78.49
75933;BME280;64803;52.356;5.310;2023-03-23T12:04:40;100605.59;;;14.08;77.29
75933;BME280;64803;52.356;5.310;2023-03-23T12:10:11;100611.63;;;14.03;74.89
75933;BME280;64803;52.356;5.310;2023-03-23T12:12:51;100610.19;;;14.46;78.68
75933;BME280;64803;52.356;5.310;2023-03-23T12:15:50;100607.22;;;14.81;74.89
75933;BME280;64803;52.356;5.310;2023-03-23T12:21:00;100599.19;;;14.41;72.87
75933;BME280;64803;52.356;5.310;2023-03-23T12:26:21;100622.84;;;14.26;72.76
75933;BME280;64803;52.356;5.310;2023-03-23T12:32:07;100608.06;;;14.16;76.81
75933;BME280;64803;52.356;5.310;2023-03-23T12:37:36;100609.50;;;13.92;75.99
75933;BME280;64803;52.356;5.310;2023-03-23T12:43:12;100613.91;;;14.00;77.98
75933;BME280;64803;52.356;5.310;2023-03-23T12:48:24;100611.38;;;13.79;79.14
75933;BME280;64803;52.356;5.310;2023-03-23T12:51:09;100598.50;;;13.87;78.89
75933;BME280;64803;52.356;5.310;2023-03-23T12:58:45;100601.03;;;14.08;78.37
75933;BME280;64803;52.356;5.310;2023-03-23T13:03:57;100592.72;;;14.55;76.39
75933;BME280;64803;52.356;5.310;2023-03-23T13:06:38;100584.44;;;14.50;75.85
75933;BME280;64803;52.356;5.310;2023-03-23T13:09:29;100594.19;;;14.51;76.02
75933;BME280;64803;52.356;5.310;2023-03-23T13:11:58;100600.44;;;14.32;75.25
75933;BME280;64803;52.356;5.310;2023-03-23T13:17:41;100600.59;;;14.11;73.91
75933;BME280;64803;52.356;5.310;2023-03-23T13:20:19;100614.91;;;14.05;73.69
75933;BME280;64803;52.356;5.310;2023-03-23T13:28:16;100621.44;;;14.43;71.87
75933;BME280;64803;52.356;5.310;2023-03-23T13:30:54;100618.91;;;14.35;74.52
75933;BME280;64803;52.356;5.310;2023-03-23T13:33:20;100613.31;;;14.43;76.10
75933;BME280;64803;52.356;5.310;2023-03-23T13:35:49;100627.66;;;14.37;75.40
75933;BME280;64803;52.356;5.310;2023-03-23T13:38:23;100619.97;;;14.34;75.53
75933;BME280;64803;52.356;5.310;2023-03-23T13:40:51;100627.59;;;14.11;76.42
75933;BME280;64803;52.356;5.310;2023-03-23T13:43:30;100619.25;;;13.93;77.73
75933;BME280;64803;52.356;5.310;2023-03-23T13:48:47;100631.31;;;13.91;78.94
75933;BME280;64803;52.356;5.310;2023-03-23T13:51:26;100630.91;;;13.87;77.19
75933;BME280;64803;52.356;5.310;2023-03-23T13:56:52;100635.28;;;14.01;76.26
75933;BME280;64803;52.356;5.310;2023-03-23T14:01:54;100627.44;;;14.32;78.73
75933;BME280;64803;52.356;5.310;2023-03-23T14:04:23;100614.53;;;14.08;76.07
75933;BME280;64803;52.356;5.310;2023-03-23T14:06:50;100620.13;;;14.13;76.49
75933;BME280;64803;52.356;5.310;2023-03-23T14:09:31;100613.50;;;14.42;74.74
75933;BME280;64803;52.356;5.310;2023-03-23T14:12:01;100591.47;;;14.58;75.32
75933;BME280;64803;52.356;5.310;2023-03-23T14:14:41;100598.09;;;14.82;75.74
75933;BME280;64803;52.356;5.310;2023-03-23T14:17:37;100587.28;;;14.68;72.17
75933;BME280;64803;52.356;5.310;2023-03-23T14:20:05;100582.31;;;14.65;72.72
75933;BME280;64803;52.356;5.310;2023-03-23T14:22:37;100581.44;;;14.85;73.28
75933;BME280;64803;52.356;5.310;2023-03-23T14:25:18;100590.75;;;15.02;71.03
75933;BME280;64803;52.356;5.310;2023-03-23T14:27:45;100605.41;;;14.48;72.30
75933;BME280;64803;52.356;5.310;2023-03-23T14:30:21;100606.44;;;14.67;72.35
75933;BME280;64803;52.356;5.310;2023-03-23T14:32:48;100600.59;;;14.63;73.10
75933;BME280;64803;52.356;5.310;2023-03-23T14:37:50;100599.34;;;14.79;71.93
75933;BME280;64803;52.356;5.310;2023-03-23T14:40:17;100588.50;;;14.92;70.47
75933;BME280;64803;52.356;5.310;2023-03-23T14:42:44;100595.16;;;14.90;73.65
75933;BME280;64803;52.356;5.310;2023-03-23T14:45:15;100578.53;;;14.86;74.28
75933;BME280;64803;52.356;5.310;2023-03-23T14:47:47;100540.31;;;14.70;71.75
75933;BME280;64803;52.356;5.310;2023-03-23T14:53:07;100561.91;;;14.76;73.94
75933;BME280;64803;52.356;5.310;2023-03-23T14:55:35;100555.03;;;14.74;69.62
75933;BME280;64803;52.356;5.310;2023-03-23T14:58:08;100548.84;;;14.60;72.40
75933;BME280;64803;52.356;5.310;2023-03-23T15:00:41;100554.66;;;15.21;70.97